createdAt,value
2022-07-29T03:16:32.277Z,100.00
2022-07-29T03:19:51.440Z,100.00
2022-07-29T03:23:04.035Z,100.00
2022-07-29T03:26:13.958Z,100.00
2022-07-29T03:29:34.093Z,100.00
2022-07-29T03:32:52.246Z,100.00
2022-07-29T03:36:08.933Z,100.00
2022-07-29T03:39:26.521Z,100.00
2022-07-29T03:42:39.733Z,100.00
2022-07-29T03:45:54.571Z,100.00
2022-07-29T03:49:08.942Z,100.00
2022-07-29T03:52:23.207Z,100.00
2022-07-29T03:55:39.261Z,100.00
2022-07-29T03:58:54.310Z,100.00
2022-07-29T04:02:10.384Z,100.00
2022-07-29T04:05:20.510Z,100.00
2022-07-29T04:08:31.339Z,100.00
2022-07-29T04:12:02.123Z,100.00
2022-07-29T04:15:13.015Z,100.00
2022-07-29T04:18:22.709Z,100.00
2022-07-29T04:21:32.223Z,100.00
2022-07-29T04:24:44.602Z,100.00
2022-07-29T04:28:03.599Z,100.00
2022-07-29T04:31:14.151Z,100.00
2022-07-29T04:34:23.688Z,100.00
2022-07-29T04:37:37.826Z,100.00
2022-07-29T04:40:49.818Z,100.00
2022-07-29T04:44:01.584Z,100.00
2022-07-29T04:47:11.229Z,100.00
2022-07-29T04:50:23.238Z,100.00
2022-07-29T04:53:32.901Z,100.00
2022-07-29T04:56:47.277Z,100.00
2022-07-29T05:14:07.883Z,100.00
2022-07-29T05:17:19.921Z,100.00
2022-07-29T05:20:32.561Z,100.00
2022-07-29T05:23:44.411Z,100.00
2022-07-29T05:26:53.904Z,100.00
2022-07-29T05:30:05.150Z,100.00
2022-07-29T05:33:35.700Z,100.00
2022-07-29T05:36:46.690Z,100.00
2022-07-29T05:39:59.075Z,100.00
2022-07-29T05:43:08.697Z,100.00
2022-07-29T05:46:20.539Z,100.00
2022-07-29T05:49:30.189Z,100.00
2022-07-29T05:52:40.066Z,100.00
2022-07-29T05:55:49.818Z,100.00
2022-07-29T05:58:59.539Z,100.00
2022-07-29T06:02:13.442Z,100.00
2022-07-29T06:05:25.277Z,100.00
2022-07-29T06:08:35.532Z,100.00
2022-07-29T06:46:37.477Z,100.00
2022-07-29T06:49:47.172Z,100.00
2022-07-29T06:53:00.912Z,100.00
2022-07-29T06:56:10.600Z,100.00
2022-07-29T06:59:26.226Z,100.00
2022-07-29T07:02:41.643Z,100.00
2022-07-29T07:05:51.202Z,100.00
2022-07-29T07:09:01.354Z,100.00
2022-07-29T07:12:11.081Z,100.00
2022-07-29T07:15:38.847Z,100.00
2022-07-29T07:18:50.831Z,100.00
2022-07-29T07:22:00.353Z,100.00
2022-07-29T07:25:11.532Z,97.24
2022-07-29T07:28:24.508Z,96.59
2022-07-29T07:31:34.716Z,97.48
2022-07-29T07:34:45.560Z,96.08
2022-07-29T07:37:55.121Z,96.12
2022-07-29T07:41:04.823Z,97.00
2022-07-29T07:44:16.241Z,96.87
2022-07-29T07:47:28.045Z,88.16
2022-07-29T07:50:39.506Z,86.37
2022-07-29T07:53:52.445Z,85.06
2022-07-29T07:57:05.877Z,82.40
2022-07-29T08:00:17.267Z,85.75
2022-07-29T08:03:29.039Z,88.59
2022-07-29T08:06:39.901Z,89.74
2022-07-29T08:09:49.397Z,91.72
2022-07-29T08:13:01.051Z,95.20
2022-07-29T08:16:15.790Z,97.62
2022-07-29T08:19:25.427Z,96.48
2022-07-29T08:22:36.193Z,96.79
2022-07-29T08:25:45.673Z,94.44
2022-07-29T08:29:02.440Z,93.06
2022-07-29T08:32:11.975Z,92.46
2022-07-29T08:35:22.354Z,88.98
2022-07-29T08:38:33.270Z,75.78
2022-07-29T08:41:56.752Z,71.41
2022-07-29T08:45:08.056Z,68.69
2022-07-29T08:48:20.901Z,66.86
2022-07-29T08:51:32.277Z,66.77
2022-07-29T08:54:45.532Z,65.84
2022-07-29T08:57:57.326Z,62.59
2022-07-29T09:01:17.030Z,62.17
2022-07-29T09:04:34.868Z,59.34
2022-07-29T09:07:45.478Z,59.67
2022-07-29T09:10:59.247Z,58.54
2022-07-29T09:14:12.550Z,57.69
2022-07-29T09:17:41.463Z,55.67
2022-07-29T09:21:05.164Z,55.19
2022-07-29T09:24:18.722Z,55.02
2022-07-29T09:27:29.881Z,54.77
2022-07-29T09:30:52.070Z,54.82
2022-07-29T09:34:02.134Z,54.13
2022-07-29T09:37:30.977Z,53.15
2022-07-29T09:40:43.319Z,54.69
2022-07-29T09:43:58.317Z,54.11
2022-07-29T09:47:07.968Z,52.51
2022-07-29T09:50:27.055Z,54.58
2022-07-29T09:53:40.723Z,53.97
2022-07-29T09:56:54.765Z,54.17
2022-07-29T10:00:10.668Z,53.22
2022-07-29T10:03:23.912Z,53.66
2022-07-29T10:06:33.515Z,52.64
2022-07-29T10:09:56.445Z,52.40
2022-07-29T10:13:12.087Z,51.27
2022-07-29T10:16:33.432Z,50.59
2022-07-29T10:19:50.596Z,47.08
2022-07-29T10:23:00.133Z,47.06
2022-07-29T10:26:13.378Z,47.95
2022-07-29T10:29:23.148Z,47.39
2022-07-29T10:32:49.213Z,47.38
2022-07-29T10:36:20.416Z,46.89
2022-07-29T10:39:49.680Z,47.11
2022-07-29T10:43:10.998Z,45.54
2022-07-29T10:46:26.560Z,45.98
2022-07-29T10:49:37.721Z,46.04
2022-07-29T10:52:57.219Z,46.78
2022-07-29T10:56:27.687Z,49.07
2022-07-29T10:59:37.205Z,46.58
2022-07-29T11:02:52.104Z,46.98
2022-07-29T11:06:08.927Z,46.93
2022-07-29T11:09:34.827Z,45.89
2022-07-29T11:12:48.831Z,45.57
2022-07-29T11:16:00.480Z,45.72
2022-07-29T11:19:29.853Z,45.85
2022-07-29T11:22:47.242Z,47.55
2022-07-29T11:26:18.754Z,48.02
2022-07-29T11:29:37.439Z,47.81
2022-07-29T11:32:51.977Z,49.02
2022-07-29T11:36:11.247Z,47.62
2022-07-29T11:39:36.643Z,48.97
2022-07-29T11:42:55.012Z,48.63
2022-07-29T11:46:04.757Z,47.63
2022-07-29T11:49:32.340Z,46.19
2022-07-29T11:52:57.288Z,45.76
2022-07-29T11:56:11.135Z,45.02
2022-07-29T11:59:32.986Z,45.11
2022-07-29T12:02:45.317Z,43.29
2022-07-29T12:05:58.564Z,43.73
2022-07-29T12:09:11.313Z,43.77
2022-07-29T12:12:26.309Z,46.25
2022-07-29T12:15:46.986Z,45.84
2022-07-29T12:18:58.199Z,46.30
2022-07-29T12:22:10.555Z,45.34
2022-07-29T12:25:32.957Z,44.93
2022-07-29T12:28:47.106Z,45.14
2022-07-29T12:32:00.268Z,44.82
2022-07-29T12:35:14.114Z,44.94
2022-07-29T12:38:26.289Z,43.72
2022-07-29T12:41:36.484Z,44.54
2022-07-29T12:44:48.925Z,42.46
2022-07-29T12:47:59.290Z,43.08
2022-07-29T12:51:10.857Z,42.03
2022-07-29T12:54:23.228Z,43.86
2022-07-29T12:57:47.947Z,43.57
2022-07-29T13:01:04.924Z,41.73
2022-07-29T13:04:28.423Z,41.73
2022-07-29T13:07:54.559Z,42.95
2022-07-29T13:11:07.756Z,43.83
2022-07-29T13:14:33.978Z,42.28
2022-07-29T13:17:45.147Z,43.70
2022-07-29T13:20:58.261Z,43.54
2022-07-29T13:24:09.244Z,44.30
2022-07-29T13:27:19.571Z,45.24
2022-07-29T13:30:29.908Z,45.09
2022-07-29T13:33:40.792Z,45.88
2022-07-29T13:36:52.399Z,46.58
2022-07-29T13:40:05.625Z,46.36
2022-07-29T13:43:15.324Z,46.27
2022-07-29T13:46:24.885Z,45.44
2022-07-29T13:49:36.056Z,45.39
2022-07-29T13:52:45.610Z,46.42
2022-07-29T13:55:55.671Z,44.78
2022-07-29T13:59:05.211Z,47.08
2022-07-29T14:02:15.608Z,46.03
2022-07-29T14:05:26.688Z,47.33
2022-07-29T14:08:39.163Z,47.63
2022-07-29T14:11:52.160Z,46.21
2022-07-29T14:15:01.686Z,46.31
2022-07-29T14:18:11.223Z,46.12
2022-07-29T14:21:22.159Z,45.97
2022-07-29T14:24:32.034Z,45.79
2022-07-29T14:27:41.818Z,45.72
2022-07-29T14:30:51.476Z,47.01
2022-07-29T14:34:03.738Z,46.64
2022-07-29T14:37:16.969Z,45.93
2022-07-29T14:40:26.912Z,45.09
2022-07-29T14:43:36.617Z,45.31
2022-07-29T14:46:49.459Z,43.15
2022-07-29T14:49:59.032Z,41.84
2022-07-29T14:53:09.838Z,40.58
2022-07-29T14:56:36.610Z,38.51
2022-07-29T14:59:46.764Z,38.21
2022-07-29T15:03:03.523Z,39.72
2022-07-29T15:06:13.324Z,40.78
2022-07-29T15:09:26.741Z,42.17
2022-07-29T15:12:36.466Z,40.32
2022-07-29T15:15:46.335Z,41.03
2022-07-29T15:18:57.516Z,40.60
2022-07-29T15:22:13.552Z,40.71
2022-07-29T15:25:24.770Z,40.44
2022-07-29T15:28:34.947Z,39.96
2022-07-29T15:31:44.629Z,40.84
2022-07-29T15:34:54.231Z,38.57
2022-07-29T15:38:12.704Z,38.10
2022-07-29T15:41:23.731Z,36.25
2022-07-29T15:44:33.667Z,34.81
2022-07-29T15:47:43.251Z,33.52
2022-07-29T15:50:52.761Z,32.68
2022-07-29T15:54:05.459Z,35.00
2022-07-29T15:57:16.345Z,34.20
2022-07-29T16:00:25.918Z,35.32
2022-07-29T16:03:35.746Z,34.45
2022-07-29T16:06:47.372Z,34.99
2022-07-29T16:10:00.149Z,35.60
2022-07-29T16:13:27.202Z,35.88
2022-07-29T16:16:39.831Z,35.22
2022-07-29T16:19:51.973Z,32.16
2022-07-29T16:23:01.605Z,34.36
2022-07-29T16:26:11.504Z,34.19
2022-07-29T16:29:25.212Z,36.29
2022-07-29T16:32:34.881Z,37.58
2022-07-29T16:35:44.510Z,38.75
2022-07-29T16:38:54.154Z,39.07
2022-07-29T16:42:05.504Z,39.70
2022-07-29T16:45:17.484Z,40.28
2022-07-29T16:48:27.682Z,40.46
2022-07-29T16:51:37.546Z,40.06
2022-07-29T16:54:49.281Z,41.51
2022-07-29T16:57:58.878Z,45.01
2022-07-29T17:01:09.843Z,47.61
2022-07-29T17:04:25.463Z,48.63
2022-07-29T17:07:39.798Z,49.16
2022-07-29T17:10:52.496Z,49.19
2022-07-29T17:14:02.103Z,48.52
2022-07-29T17:17:15.670Z,49.24
2022-07-29T17:20:27.202Z,48.70
2022-07-29T17:23:38.985Z,49.09
2022-07-29T17:26:48.532Z,50.23
2022-07-29T17:29:58.319Z,50.91
2022-07-29T17:33:09.307Z,51.23
2022-07-29T17:36:25.065Z,52.04
2022-07-29T17:39:36.004Z,52.96
2022-07-29T17:42:47.705Z,52.77
2022-07-29T17:45:59.533Z,54.20
2022-07-29T17:49:10.741Z,54.46
2022-07-29T17:52:20.392Z,53.95
2022-07-29T17:55:29.901Z,54.99
2022-07-29T17:58:39.737Z,55.43
2022-07-29T18:01:49.298Z,55.50
2022-07-29T18:05:02.758Z,55.87
2022-07-29T18:08:12.332Z,56.70
2022-07-29T18:11:22.029Z,57.20
2022-07-29T18:14:31.521Z,58.50
2022-07-29T18:17:56.483Z,59.46
2022-07-29T18:21:15.902Z,60.06
2022-07-29T18:24:28.993Z,60.85
2022-07-29T18:27:41.163Z,62.21
2022-07-29T18:30:51.056Z,62.11
2022-07-29T18:34:02.763Z,63.25
2022-07-29T18:37:13.650Z,64.35
2022-07-29T18:40:25.530Z,63.67
2022-07-29T18:43:37.557Z,63.84
2022-07-29T18:46:55.432Z,64.04
2022-07-29T18:50:05.868Z,63.11
2022-07-29T18:53:17.140Z,62.18
2022-07-29T18:56:26.682Z,67.26
2022-07-29T18:59:36.319Z,72.09
2022-07-29T19:02:46.122Z,77.87
2022-07-29T19:05:56.119Z,78.76
2022-07-29T19:09:08.406Z,80.27
2022-07-29T19:12:17.970Z,82.07
2022-07-29T19:15:27.697Z,82.96
2022-07-29T19:18:37.190Z,84.36
2022-07-29T19:21:49.358Z,84.07
2022-07-29T19:25:02.561Z,88.40
2022-07-29T19:28:12.092Z,89.74
2022-07-29T19:31:21.711Z,90.92
2022-07-29T19:34:31.448Z,91.95
2022-07-29T19:37:41.034Z,91.96
2022-07-29T19:40:54.516Z,92.87
2022-07-29T19:44:06.487Z,93.11
2022-07-29T19:47:17.240Z,93.26
2022-07-29T19:50:27.191Z,94.61
2022-07-29T19:53:36.753Z,96.17
2022-07-29T19:56:47.574Z,96.47
2022-07-29T19:59:57.453Z,96.62
2022-07-29T20:03:07.051Z,97.17
2022-07-29T20:06:19.319Z,97.34
2022-07-29T20:09:28.796Z,97.55
2022-07-29T20:12:44.590Z,97.26
2022-07-29T20:15:58.504Z,97.75
2022-07-29T20:19:08.035Z,98.34
2022-07-29T20:22:21.101Z,98.87
2022-07-29T20:25:33.431Z,99.51
2022-07-29T20:28:48.903Z,99.72
2022-07-29T20:31:59.153Z,99.89
2022-07-29T20:35:09.830Z,100.00
2022-07-29T20:38:19.358Z,100.00
2022-07-29T20:41:29.426Z,99.92
2022-07-29T20:44:40.234Z,100.00
2022-07-29T20:47:50.556Z,100.00
2022-07-29T20:51:00.068Z,100.00
2022-07-29T20:54:09.766Z,100.00
2022-07-29T20:57:19.246Z,100.00
2022-07-29T21:00:54.834Z,100.00
2022-07-29T21:04:06.852Z,100.00
2022-07-29T21:07:16.661Z,100.00
2022-07-29T21:10:31.804Z,100.00
2022-07-29T21:13:41.565Z,100.00
2022-07-29T21:17:00.268Z,100.00
2022-07-29T21:20:10.685Z,100.00
2022-07-29T21:23:28.968Z,100.00
2022-07-29T21:26:54.469Z,100.00
2022-07-29T21:30:14.532Z,100.00
2022-07-29T21:33:26.255Z,100.00
2022-07-29T21:36:48.191Z,100.00
2022-07-29T21:39:58.375Z,100.00
2022-07-29T21:43:07.871Z,100.00
2022-07-29T21:46:20.546Z,100.00
2022-07-29T21:49:37.696Z,100.00
2022-07-29T21:52:47.206Z,100.00
2022-07-29T21:56:00.030Z,100.00
2022-07-29T21:59:12.849Z,100.00
2022-07-29T22:02:25.540Z,100.00
2022-07-29T22:05:38.717Z,100.00
2022-07-29T22:08:48.195Z,100.00
2022-07-29T22:12:02.267Z,100.00
2022-07-29T22:15:19.702Z,100.00
2022-07-29T22:18:29.187Z,100.00
2022-07-29T22:21:40.403Z,100.00
2022-07-29T22:24:49.928Z,100.00
2022-07-29T22:28:01.624Z,100.00
2022-07-29T22:31:11.184Z,100.00
2022-07-29T22:34:20.736Z,100.00
2022-07-29T22:37:34.594Z,100.00
2022-07-29T22:40:44.110Z,100.00
2022-07-29T22:43:53.593Z,100.00
2022-07-29T22:47:04.869Z,100.00
2022-07-29T22:50:14.358Z,100.00
2022-07-29T22:53:27.513Z,100.00
2022-07-29T22:56:37.313Z,100.00
2022-07-29T22:59:46.915Z,100.00
